sensor_id;sensor_type;location;lat;lon;timestamp;P1;durP1;ratioP1;P2;durP2;ratioP2
38865;SDS011;62686;48.984;8.394;2023-03-31T00:01:07;7.40;;;1.90;;
38865;SDS011;62686;48.984;8.394;2023-03-31T00:03:36;5.22;;;1.70;;
38865;SDS011;62686;48.984;8.394;2023-03-31T00:06:11;5.43;;;2.00;;
38865;SDS011;62686;48.984;8.394;2023-03-31T00:08:43;6.15;;;1.80;;
38865;SDS011;62686;48.984;8.394;2023-03-31T00:11:12;5.03;;;1.77;;
38865;SDS011;62686;48.984;8.394;2023-03-31T00:13:40;8.55;;;1.98;;
38865;SDS011;62686;48.984;8.394;2023-03-31T00:16:09;5.85;;;2.03;;
38865;SDS011;62686;48.984;8.394;2023-03-31T00:18:38;5.30;;;1.75;;
38865;SDS011;62686;48.984;8.394;2023-03-31T00:21:15;6.38;;;1.90;;
38865;SDS011;62686;48.984;8.394;2023-03-31T00:23:51;7.15;;;1.85;;
38865;SDS011;62686;48.984;8.394;2023-03-31T00:26:20;5.32;;;1.80;;
38865;SDS011;62686;48.984;8.394;2023-03-31T00:28:49;7.07;;;1.90;;
38865;SDS011;62686;48.984;8.394;2023-03-31T00:31:17;5.40;;;1.95;;
38865;SDS011;62686;48.984;8.394;2023-03-31T00:33:46;4.47;;;2.17;;
38865;SDS011;62686;48.984;8.394;2023-03-31T00:36:16;5.07;;;1.80;;
38865;SDS011;62686;48.984;8.394;2023-03-31T00:38:52;4.03;;;1.63;;
38865;SDS011;62686;48.984;8.394;2023-03-31T00:41:21;8.90;;;2.28;;
38865;SDS011;62686;48.984;8.394;2023-03-31T00:44:00;7.72;;;2.30;;
38865;SDS011;62686;48.984;8.394;2023-03-31T00:46:33;6.32;;;1.70;;
38865;SDS011;62686;48.984;8.394;2023-03-31T00:49:08;8.38;;;1.70;;
38865;SDS011;62686;48.984;8.394;2023-03-31T00:51:44;7.30;;;2.03;;
38865;SDS011;62686;48.984;8.394;2023-03-31T00:54:14;5.32;;;1.80;;
38865;SDS011;62686;48.984;8.394;2023-03-31T00:56:45;10.63;;;2.45;;
38865;SDS011;62686;48.984;8.394;2023-03-31T00:59:15;4.88;;;2.15;;
38865;SDS011;62686;48.984;8.394;2023-03-31T01:01:44;7.20;;;1.80;;
38865;SDS011;62686;48.984;8.394;2023-03-31T01:04:16;5.28;;;1.75;;
38865;SDS011;62686;48.984;8.394;2023-03-31T01:06:53;4.87;;;1.33;;
38865;SDS011;62686;48.984;8.394;2023-03-31T01:09:27;4.07;;;1.50;;
38865;SDS011;62686;48.984;8.394;2023-03-31T01:12:00;9.10;;;1.67;;
38865;SDS011;62686;48.984;8.394;2023-03-31T01:14:30;5.13;;;1.30;;
38865;SDS011;62686;48.984;8.394;2023-03-31T01:16:59;3.37;;;1.27;;
38865;SDS011;62686;48.984;8.394;2023-03-31T01:19:30;5.43;;;1.50;;
38865;SDS011;62686;48.984;8.394;2023-03-31T01:22:28;4.20;;;1.40;;
38865;SDS011;62686;48.984;8.394;2023-03-31T01:28:17;3.37;;;1.30;;
38865;SDS011;62686;48.984;8.394;2023-03-31T01:34:26;7.70;;;1.93;;
38865;SDS011;62686;48.984;8.394;2023-03-31T01:37:14;4.30;;;1.53;;
38865;SDS011;62686;48.984;8.394;2023-03-31T01:40:08;8.70;;;1.60;;
38865;SDS011;62686;48.984;8.394;2023-03-31T01:42:47;7.17;;;1.70;;
38865;SDS011;62686;48.984;8.394;2023-03-31T01:45:24;3.93;;;2.00;;
38865;SDS011;62686;48.984;8.394;2023-03-31T01:48:00;7.43;;;1.77;;
38865;SDS011;62686;48.984;8.394;2023-03-31T01:50:34;5.87;;;2.07;;
38865;SDS011;62686;48.984;8.394;2023-03-31T01:53:07;7.43;;;2.07;;
38865;SDS011;62686;48.984;8.394;2023-03-31T01:55:44;10.17;;;2.07;;
38865;SDS011;62686;48.984;8.394;2023-03-31T01:58:18;7.30;;;2.10;;
38865;SDS011;62686;48.984;8.394;2023-03-31T02:00:52;5.87;;;2.10;;
38865;SDS011;62686;48.984;8.394;2023-03-31T02:03:27;7.53;;;1.83;;
38865;SDS011;62686;48.984;8.394;2023-03-31T02:06:02;5.17;;;1.93;;
38865;SDS011;62686;48.984;8.394;2023-03-31T02:08:36;6.67;;;2.20;;
38865;SDS011;62686;48.984;8.394;2023-03-31T02:11:09;5.70;;;2.10;;
38865;SDS011;62686;48.984;8.394;2023-03-31T02:13:38;7.17;;;2.13;;
38865;SDS011;62686;48.984;8.394;2023-03-31T02:16:11;6.27;;;2.23;;
38865;SDS011;62686;48.984;8.394;2023-03-31T02:18:44;6.20;;;2.00;;
38865;SDS011;62686;48.984;8.394;2023-03-31T02:21:15;8.27;;;2.37;;
38865;SDS011;62686;48.984;8.394;2023-03-31T02:23:44;8.40;;;2.60;;
38865;SDS011;62686;48.984;8.394;2023-03-31T02:26:16;9.70;;;2.17;;
38865;SDS011;62686;48.984;8.394;2023-03-31T02:28:50;9.87;;;3.07;;
38865;SDS011;62686;48.984;8.394;2023-03-31T02:31:23;8.47;;;2.53;;
38865;SDS011;62686;48.984;8.394;2023-03-31T02:33:55;9.43;;;2.10;;
38865;SDS011;62686;48.984;8.394;2023-03-31T02:36:23;8.40;;;2.60;;
38865;SDS011;62686;48.984;8.394;2023-03-31T02:38:53;6.60;;;2.33;;
38865;SDS011;62686;48.984;8.394;2023-03-31T02:41:25;8.33;;;2.20;;
38865;SDS011;62686;48.984;8.394;2023-03-31T02:43:55;10.67;;;2.43;;
38865;SDS011;62686;48.984;8.394;2023-03-31T02:46:23;8.00;;;2.63;;
38865;SDS011;62686;48.984;8.394;2023-03-31T02:48:53;12.43;;;3.00;;
38865;SDS011;62686;48.984;8.394;2023-03-31T02:51:37;10.10;;;2.40;;
38865;SDS011;62686;48.984;8.394;2023-03-31T02:54:31;10.73;;;2.90;;
38865;SDS011;62686;48.984;8.394;2023-03-31T02:57:39;6.83;;;2.30;;
38865;SDS011;62686;48.984;8.394;2023-03-31T03:00:22;5.60;;;2.33;;
38865;SDS011;62686;48.984;8.394;2023-03-31T03:03:04;8.40;;;2.60;;
38865;SDS011;62686;48.984;8.394;2023-03-31T03:05:44;6.97;;;2.77;;
38865;SDS011;62686;48.984;8.394;2023-03-31T03:08:22;6.07;;;2.80;;
38865;SDS011;62686;48.984;8.394;2023-03-31T03:10:58;7.83;;;2.87;;
38865;SDS011;62686;48.984;8.394;2023-03-31T03:13:34;9.50;;;2.80;;
38865;SDS011;62686;48.984;8.394;2023-03-31T03:16:07;6.10;;;2.67;;
38865;SDS011;62686;48.984;8.394;2023-03-31T03:18:44;6.80;;;2.50;;
38865;SDS011;62686;48.984;8.394;2023-03-31T03:21:22;8.90;;;2.40;;
38865;SDS011;62686;48.984;8.394;2023-03-31T03:23:51;9.13;;;2.53;;
38865;SDS011;62686;48.984;8.394;2023-03-31T03:26:20;8.10;;;3.00;;
38865;SDS011;62686;48.984;8.394;2023-03-31T03:28:50;9.63;;;3.00;;
38865;SDS011;62686;48.984;8.394;2023-03-31T03:31:19;10.67;;;2.70;;
38865;SDS011;62686;48.984;8.394;2023-03-31T03:33:51;12.30;;;3.40;;
38865;SDS011;62686;48.984;8.394;2023-03-31T03:36:19;8.90;;;3.07;;
38865;SDS011;62686;48.984;8.394;2023-03-31T03:38:48;10.03;;;2.63;;
38865;SDS011;62686;48.984;8.394;2023-03-31T03:41:17;11.80;;;3.30;;
38865;SDS011;62686;48.984;8.394;2023-03-31T03:43:45;10.97;;;3.03;;
38865;SDS011;62686;48.984;8.394;2023-03-31T03:46:14;9.70;;;3.40;;
38865;SDS011;62686;48.984;8.394;2023-03-31T03:48:43;10.73;;;3.10;;
38865;SDS011;62686;48.984;8.394;2023-03-31T03:51:11;14.13;;;3.60;;
38865;SDS011;62686;48.984;8.394;2023-03-31T03:53:39;8.37;;;3.13;;
38865;SDS011;62686;48.984;8.394;2023-03-31T03:56:08;8.50;;;3.07;;
38865;SDS011;62686;48.984;8.394;2023-03-31T03:58:36;9.77;;;3.17;;
38865;SDS011;62686;48.984;8.394;2023-03-31T04:01:04;11.67;;;3.70;;
38865;SDS011;62686;48.984;8.394;2023-03-31T04:03:34;11.60;;;3.20;;
38865;SDS011;62686;48.984;8.394;2023-03-31T04:06:02;9.70;;;3.00;;
38865;SDS011;62686;48.984;8.394;2023-03-31T04:08:31;7.30;;;3.00;;
38865;SDS011;62686;48.984;8.394;2023-03-31T04:10:59;11.10;;;4.10;;
38865;SDS011;62686;48.984;8.394;2023-03-31T04:13:27;11.23;;;3.57;;
38865;SDS011;62686;48.984;8.394;2023-03-31T04:15:55;14.03;;;3.50;;
38865;SDS011;62686;48.984;8.394;2023-03-31T04:18:24;10.47;;;3.37;;
38865;SDS011;62686;48.984;8.394;2023-03-31T04:20:54;12.90;;;3.33;;
38865;SDS011;62686;48.984;8.394;2023-03-31T04:23:29;8.17;;;3.13;;
38865;SDS011;62686;48.984;8.394;2023-03-31T04:25:58;11.23;;;3.37;;
38865;SDS011;62686;48.984;8.394;2023-03-31T04:28:28;9.30;;;3.30;;
38865;SDS011;62686;48.984;8.394;2023-03-31T04:31:00;8.10;;;3.47;;
38865;SDS011;62686;48.984;8.394;2023-03-31T04:33:29;10.53;;;3.37;;
38865;SDS011;62686;48.984;8.394;2023-03-31T04:36:00;9.97;;;3.70;;
38865;SDS011;62686;48.984;8.394;2023-03-31T04:38:32;12.23;;;3.80;;
38865;SDS011;62686;48.984;8.394;2023-03-31T04:41:00;7.97;;;3.40;;
38865;SDS011;62686;48.984;8.394;2023-03-31T04:43:28;9.43;;;3.50;;
38865;SDS011;62686;48.984;8.394;2023-03-31T04:45:57;12.67;;;3.60;;
38865;SDS011;62686;48.984;8.394;2023-03-31T04:48:25;10.73;;;3.77;;
38865;SDS011;62686;48.984;8.394;2023-03-31T04:50:53;8.40;;;3.40;;
38865;SDS011;62686;48.984;8.394;2023-03-31T04:53:23;8.53;;;3.93;;
38865;SDS011;62686;48.984;8.394;2023-03-31T04:55:51;10.50;;;3.93;;
38865;SDS011;62686;48.984;8.394;2023-03-31T04:58:19;11.47;;;3.97;;
38865;SDS011;62686;48.984;8.394;2023-03-31T05:00:48;13.17;;;4.00;;
38865;SDS011;62686;48.984;8.394;2023-03-31T05:03:16;13.77;;;4.50;;
38865;SDS011;62686;48.984;8.394;2023-03-31T05:05:44;8.27;;;3.50;;
38865;SDS011;62686;48.984;8.394;2023-03-31T05:08:12;13.87;;;3.67;;
38865;SDS011;62686;48.984;8.394;2023-03-31T05:10:42;12.87;;;3.87;;
38865;SDS011;62686;48.984;8.394;2023-03-31T05:13:11;8.93;;;3.73;;
38865;SDS011;62686;48.984;8.394;2023-03-31T05:15:39;12.60;;;3.57;;
38865;SDS011;62686;48.984;8.394;2023-03-31T05:18:10;8.53;;;4.03;;
38865;SDS011;62686;48.984;8.394;2023-03-31T05:20:38;13.57;;;4.07;;
38865;SDS011;62686;48.984;8.394;2023-03-31T05:23:06;16.00;;;3.90;;
38865;SDS011;62686;48.984;8.394;2023-03-31T05:25:35;9.77;;;4.03;;
38865;SDS011;62686;48.984;8.394;2023-03-31T05:28:04;9.87;;;4.40;;
38865;SDS011;62686;48.984;8.394;2023-03-31T05:30:33;13.23;;;4.50;;
38865;SDS011;62686;48.984;8.394;2023-03-31T05:33:01;7.60;;;3.70;;
38865;SDS011;62686;48.984;8.394;2023-03-31T05:35:29;10.17;;;4.03;;
38865;SDS011;62686;48.984;8.394;2023-03-31T05:37:57;9.37;;;4.13;;
38865;SDS011;62686;48.984;8.394;2023-03-31T05:40:26;9.53;;;4.80;;
38865;SDS011;62686;48.984;8.394;2023-03-31T05:42:54;9.93;;;4.60;;
38865;SDS011;62686;48.984;8.394;2023-03-31T05:45:23;12.33;;;4.87;;
38865;SDS011;62686;48.984;8.394;2023-03-31T05:47:52;10.67;;;4.57;;
38865;SDS011;62686;48.984;8.394;2023-03-31T05:50:20;11.97;;;4.97;;
38865;SDS011;62686;48.984;8.394;2023-03-31T05:52:48;11.93;;;4.87;;
38865;SDS011;62686;48.984;8.394;2023-03-31T05:55:16;10.87;;;4.53;;
38865;SDS011;62686;48.984;8.394;2023-03-31T05:57:45;11.37;;;4.87;;
38865;SDS011;62686;48.984;8.394;2023-03-31T06:00:13;15.50;;;5.13;;
38865;SDS011;62686;48.984;8.394;2023-03-31T06:02:44;12.43;;;5.10;;
38865;SDS011;62686;48.984;8.394;2023-03-31T06:05:13;15.13;;;5.93;;
38865;SDS011;62686;48.984;8.394;2023-03-31T06:07:41;12.17;;;7.90;;
38865;SDS011;62686;48.984;8.394;2023-03-31T06:10:09;13.37;;;7.53;;
38865;SDS011;62686;48.984;8.394;2023-03-31T06:12:38;46.33;;;17.30;;
38865;SDS011;62686;48.984;8.394;2023-03-31T06:15:06;15.70;;;8.20;;
38865;SDS011;62686;48.984;8.394;2023-03-31T06:17:35;16.23;;;6.63;;
38865;SDS011;62686;48.984;8.394;2023-03-31T06:20:06;13.07;;;5.40;;
38865;SDS011;62686;48.984;8.394;2023-03-31T06:22:41;14.13;;;5.97;;
38865;SDS011;62686;48.984;8.394;2023-03-31T06:25:09;12.27;;;5.73;;
38865;SDS011;62686;48.984;8.394;2023-03-31T06:27:37;16.50;;;6.77;;
38865;SDS011;62686;48.984;8.394;2023-03-31T06:30:06;12.90;;;6.33;;
38865;SDS011;62686;48.984;8.394;2023-03-31T06:32:36;18.90;;;6.70;;
38865;SDS011;62686;48.984;8.394;2023-03-31T06:35:06;13.50;;;6.93;;
38865;SDS011;62686;48.984;8.394;2023-03-31T06:37:35;14.20;;;6.60;;
38865;SDS011;62686;48.984;8.394;2023-03-31T06:40:03;17.97;;;6.43;;
38865;SDS011;62686;48.984;8.394;2023-03-31T06:42:32;13.37;;;6.80;;
38865;SDS011;62686;48.984;8.394;2023-03-31T06:45:01;16.30;;;7.07;;
38865;SDS011;62686;48.984;8.394;2023-03-31T06:47:29;13.57;;;5.73;;
38865;SDS011;62686;48.984;8.394;2023-03-31T06:49:57;12.63;;;5.57;;
38865;SDS011;62686;48.984;8.394;2023-03-31T06:52:27;12.53;;;5.50;;
38865;SDS011;62686;48.984;8.394;2023-03-31T06:54:56;10.00;;;4.40;;
38865;SDS011;62686;48.984;8.394;2023-03-31T06:57:25;9.53;;;4.00;;
38865;SDS011;62686;48.984;8.394;2023-03-31T06:59:54;9.87;;;4.63;;
38865;SDS011;62686;48.984;8.394;2023-03-31T07:02:22;10.97;;;4.40;;
38865;SDS011;62686;48.984;8.394;2023-03-31T07:04:50;6.60;;;3.40;;
38865;SDS011;62686;48.984;8.394;2023-03-31T07:07:19;7.43;;;3.27;;
38865;SDS011;62686;48.984;8.394;2023-03-31T07:09:48;6.43;;;3.10;;
38865;SDS011;62686;48.984;8.394;2023-03-31T07:12:17;6.43;;;3.00;;
38865;SDS011;62686;48.984;8.394;2023-03-31T07:14:45;6.33;;;3.10;;
38865;SDS011;62686;48.984;8.394;2023-03-31T07:17:14;7.53;;;2.77;;
38865;SDS011;62686;48.984;8.394;2023-03-31T07:19:42;6.07;;;2.70;;
38865;SDS011;62686;48.984;8.394;2023-03-31T07:22:13;4.37;;;2.40;;
38865;SDS011;62686;48.984;8.394;2023-03-31T07:24:41;6.30;;;1.98;;
38865;SDS011;62686;48.984;8.394;2023-03-31T07:27:11;4.05;;;1.80;;
38865;SDS011;62686;48.984;8.394;2023-03-31T07:29:39;4.15;;;1.65;;
38865;SDS011;62686;48.984;8.394;2023-03-31T07:32:07;1.85;;;1.27;;
38865;SDS011;62686;48.984;8.394;2023-03-31T07:34:36;2.63;;;1.58;;
38865;SDS011;62686;48.984;8.394;2023-03-31T07:37:06;4.30;;;1.38;;
38865;SDS011;62686;48.984;8.394;2023-03-31T07:39:34;3.15;;;1.42;;
38865;SDS011;62686;48.984;8.394;2023-03-31T07:42:03;4.15;;;1.50;;
38865;SDS011;62686;48.984;8.394;2023-03-31T07:44:33;3.20;;;1.52;;
38865;SDS011;62686;48.984;8.394;2023-03-31T07:47:01;2.40;;;1.27;;
38865;SDS011;62686;48.984;8.394;2023-03-31T07:49:31;2.75;;;1.52;;
38865;SDS011;62686;48.984;8.394;2023-03-31T07:52:01;4.85;;;1.67;;
38865;SDS011;62686;48.984;8.394;2023-03-31T07:54:29;5.75;;;1.60;;
38865;SDS011;62686;48.984;8.394;2023-03-31T07:56:57;3.47;;;1.42;;
38865;SDS011;62686;48.984;8.394;2023-03-31T07:59:30;4.28;;;1.50;;
38865;SDS011;62686;48.984;8.394;2023-03-31T08:02:00;3.42;;;1.60;;
38865;SDS011;62686;48.984;8.394;2023-03-31T08:04:28;3.55;;;1.50;;
38865;SDS011;62686;48.984;8.394;2023-03-31T08:06:56;5.35;;;1.75;;
38865;SDS011;62686;48.984;8.394;2023-03-31T08:09:25;5.00;;;1.85;;
38865;SDS011;62686;48.984;8.394;2023-03-31T08:11:53;3.35;;;1.30;;
38865;SDS011;62686;48.984;8.394;2023-03-31T08:14:21;3.22;;;1.73;;
38865;SDS011;62686;48.984;8.394;2023-03-31T08:16:55;4.57;;;1.60;;
38865;SDS011;62686;48.984;8.394;2023-03-31T08:19:27;5.13;;;1.27;;
38865;SDS011;62686;48.984;8.394;2023-03-31T08:21:55;5.60;;;1.77;;
38865;SDS011;62686;48.984;8.394;2023-03-31T08:24:26;3.80;;;1.73;;
38865;SDS011;62686;48.984;8.394;2023-03-31T08:26:55;4.88;;;1.48;;
38865;SDS011;62686;48.984;8.394;2023-03-31T08:29:25;5.13;;;1.75;;
38865;SDS011;62686;48.984;8.394;2023-03-31T08:31:53;4.97;;;1.88;;
38865;SDS011;62686;48.984;8.394;2023-03-31T08:34:21;4.43;;;1.52;;
38865;SDS011;62686;48.984;8.394;2023-03-31T08:36:53;3.40;;;1.70;;
38865;SDS011;62686;48.984;8.394;2023-03-31T08:39:22;6.50;;;1.88;;
38865;SDS011;62686;48.984;8.394;2023-03-31T08:41:53;4.38;;;1.80;;
38865;SDS011;62686;48.984;8.394;2023-03-31T08:44:25;2.47;;;1.27;;
38865;SDS011;62686;48.984;8.394;2023-03-31T08:46:59;3.67;;;1.55;;
38865;SDS011;62686;48.984;8.394;2023-03-31T08:49:30;3.35;;;1.52;;
38865;SDS011;62686;48.984;8.394;2023-03-31T08:52:06;3.42;;;1.58;;
38865;SDS011;62686;48.984;8.394;2023-03-31T08:54:40;4.90;;;1.63;;
38865;SDS011;62686;48.984;8.394;2023-03-31T08:57:11;4.57;;;1.70;;
38865;SDS011;62686;48.984;8.394;2023-03-31T08:59:45;5.80;;;1.38;;
38865;SDS011;62686;48.984;8.394;2023-03-31T09:02:16;4.70;;;1.63;;
38865;SDS011;62686;48.984;8.394;2023-03-31T09:07:55;2.70;;;1.33;;
38865;SDS011;62686;48.984;8.394;2023-03-31T09:10:31;4.85;;;1.65;;
38865;SDS011;62686;48.984;8.394;2023-03-31T09:13:09;3.65;;;1.45;;
38865;SDS011;62686;48.984;8.394;2023-03-31T09:15:57;4.93;;;1.45;;
38865;SDS011;62686;48.984;8.394;2023-03-31T09:18:30;4.35;;;1.65;;
38865;SDS011;62686;48.984;8.394;2023-03-31T09:21:03;4.40;;;1.67;;
38865;SDS011;62686;48.984;8.394;2023-03-31T09:23:37;6.45;;;1.70;;
38865;SDS011;62686;48.984;8.394;2023-03-31T09:26:12;3.08;;;1.55;;
38865;SDS011;62686;48.984;8.394;2023-03-31T09:28:53;5.32;;;1.58;;
38865;SDS011;62686;48.984;8.394;2023-03-31T09:31:25;3.90;;;1.80;;
38865;SDS011;62686;48.984;8.394;2023-03-31T09:33:58;3.63;;;1.38;;
38865;SDS011;62686;48.984;8.394;2023-03-31T09:36:28;4.32;;;1.75;;
38865;SDS011;62686;48.984;8.394;2023-03-31T09:38:59;5.35;;;1.58;;
38865;SDS011;62686;48.984;8.394;2023-03-31T09:41:30;4.93;;;1.90;;
38865;SDS011;62686;48.984;8.394;2023-03-31T09:43:59;8.00;;;2.03;;
38865;SDS011;62686;48.984;8.394;2023-03-31T09:46:28;4.75;;;1.35;;
38865;SDS011;62686;48.984;8.394;2023-03-31T09:48:59;5.50;;;1.70;;
38865;SDS011;62686;48.984;8.394;2023-03-31T09:51:33;8.00;;;2.08;;
38865;SDS011;62686;48.984;8.394;2023-03-31T09:54:06;4.07;;;1.67;;
38865;SDS011;62686;48.984;8.394;2023-03-31T09:56:44;5.90;;;2.22;;
38865;SDS011;62686;48.984;8.394;2023-03-31T09:59:16;5.32;;;2.35;;
38865;SDS011;62686;48.984;8.394;2023-03-31T10:01:46;5.60;;;1.98;;
38865;SDS011;62686;48.984;8.394;2023-03-31T10:04:18;8.18;;;1.90;;
38865;SDS011;62686;48.984;8.394;2023-03-31T10:06:49;4.68;;;1.95;;
38865;SDS011;62686;48.984;8.394;2023-03-31T10:09:20;6.55;;;1.95;;
38865;SDS011;62686;48.984;8.394;2023-03-31T10:11:56;5.55;;;1.83;;
38865;SDS011;62686;48.984;8.394;2023-03-31T10:14:32;6.30;;;1.70;;
38865;SDS011;62686;48.984;8.394;2023-03-31T10:17:11;5.05;;;2.13;;
38865;SDS011;62686;48.984;8.394;2023-03-31T10:19:46;5.47;;;1.83;;
38865;SDS011;62686;48.984;8.394;2023-03-31T10:22:15;7.35;;;2.30;;
38865;SDS011;62686;48.984;8.394;2023-03-31T10:25:03;7.13;;;2.33;;
38865;SDS011;62686;48.984;8.394;2023-03-31T10:27:36;8.00;;;2.65;;
38865;SDS011;62686;48.984;8.394;2023-03-31T10:30:09;9.75;;;2.17;;
38865;SDS011;62686;48.984;8.394;2023-03-31T10:32:39;7.20;;;2.22;;
38865;SDS011;62686;48.984;8.394;2023-03-31T10:35:20;7.78;;;1.92;;
38865;SDS011;62686;48.984;8.394;2023-03-31T10:37:54;7.85;;;2.00;;
38865;SDS011;62686;48.984;8.394;2023-03-31T10:40:26;5.95;;;2.33;;
38865;SDS011;62686;48.984;8.394;2023-03-31T10:43:02;7.50;;;2.33;;
38865;SDS011;62686;48.984;8.394;2023-03-31T10:45:36;7.78;;;2.42;;
38865;SDS011;62686;48.984;8.394;2023-03-31T10:48:15;7.75;;;2.00;;
38865;SDS011;62686;48.984;8.394;2023-03-31T10:50:47;5.53;;;1.63;;
38865;SDS011;62686;48.984;8.394;2023-03-31T10:53:18;3.63;;;1.70;;
38865;SDS011;62686;48.984;8.394;2023-03-31T10:58:45;4.35;;;1.13;;
38865;SDS011;62686;48.984;8.394;2023-03-31T11:01:29;3.88;;;1.30;;
38865;SDS011;62686;48.984;8.394;2023-03-31T11:04:15;2.10;;;0.88;;
38865;SDS011;62686;48.984;8.394;2023-03-31T11:07:03;6.32;;;1.27;;
38865;SDS011;62686;48.984;8.394;2023-03-31T11:09:45;10.63;;;1.30;;
38865;SDS011;62686;48.984;8.394;2023-03-31T11:12:23;1.55;;;0.80;;
38865;SDS011;62686;48.984;8.394;2023-03-31T11:15:01;0.40;;;0.30;;
38865;SDS011;62686;48.984;8.394;2023-03-31T11:17:42;2.92;;;1.25;;
38865;SDS011;62686;48.984;8.394;2023-03-31T11:20:23;2.65;;;0.90;;
38865;SDS011;62686;48.984;8.394;2023-03-31T11:22:57;1.75;;;0.82;;
38865;SDS011;62686;48.984;8.394;2023-03-31T11:25:34;2.88;;;1.05;;
38865;SDS011;62686;48.984;8.394;2023-03-31T11:28:14;2.42;;;0.93;;
38865;SDS011;62686;48.984;8.394;2023-03-31T11:31:04;2.58;;;0.70;;
38865;SDS011;62686;48.984;8.394;2023-03-31T11:36:51;1.20;;;0.57;;
38865;SDS011;62686;48.984;8.394;2023-03-31T11:39:46;1.23;;;0.50;;
38865;SDS011;62686;48.984;8.394;2023-03-31T11:42:25;1.58;;;0.50;;
38865;SDS011;62686;48.984;8.394;2023-03-31T11:45:04;3.17;;;0.55;;
38865;SDS011;62686;48.984;8.394;2023-03-31T11:47:42;3.53;;;0.60;;
38865;SDS011;62686;48.984;8.394;2023-03-31T11:50:15;2.88;;;0.50;;
38865;SDS011;62686;48.984;8.394;2023-03-31T11:52:49;0.98;;;0.50;;
38865;SDS011;62686;48.984;8.394;2023-03-31T11:55:23;3.63;;;1.08;;
38865;SDS011;62686;48.984;8.394;2023-03-31T11:57:56;2.13;;;0.90;;
38865;SDS011;62686;48.984;8.394;2023-03-31T12:00:31;1.23;;;0.80;;
38865;SDS011;62686;48.984;8.394;2023-03-31T12:03:04;2.55;;;0.80;;
38865;SDS011;62686;48.984;8.394;2023-03-31T12:05:39;3.10;;;1.00;;
38865;SDS011;62686;48.984;8.394;2023-03-31T12:08:13;2.38;;;0.80;;
38865;SDS011;62686;48.984;8.394;2023-03-31T12:10:48;2.17;;;0.90;;
38865;SDS011;62686;48.984;8.394;2023-03-31T12:13:25;1.98;;;0.73;;
38865;SDS011;62686;48.984;8.394;2023-03-31T12:16:12;1.73;;;1.00;;
38865;SDS011;62686;48.984;8.394;2023-03-31T12:18:48;1.33;;;0.68;;
38865;SDS011;62686;48.984;8.394;2023-03-31T12:21:28;1.25;;;0.75;;
38865;SDS011;62686;48.984;8.394;2023-03-31T12:23:58;2.08;;;0.80;;
38865;SDS011;62686;48.984;8.394;2023-03-31T12:26:29;1.27;;;0.80;;
38865;SDS011;62686;48.984;8.394;2023-03-31T12:29:11;3.65;;;0.65;;
38865;SDS011;62686;48.984;8.394;2023-03-31T12:31:51;2.08;;;0.90;;
38865;SDS011;62686;48.984;8.394;2023-03-31T12:34:22;2.08;;;0.77;;
38865;SDS011;62686;48.984;8.394;2023-03-31T12:37:03;3.97;;;1.20;;
38865;SDS011;62686;48.984;8.394;2023-03-31T12:39:48;4.03;;;1.20;;
38865;SDS011;62686;48.984;8.394;2023-03-31T12:42:30;2.63;;;1.20;;
38865;SDS011;62686;48.984;8.394;2023-03-31T12:45:09;3.17;;;1.10;;
38865;SDS011;62686;48.984;8.394;2023-03-31T12:47:52;3.05;;;1.17;;
38865;SDS011;62686;48.984;8.394;2023-03-31T12:50:42;4.47;;;1.23;;
38865;SDS011;62686;48.984;8.394;2023-03-31T12:53:21;2.00;;;1.10;;
38865;SDS011;62686;48.984;8.394;2023-03-31T12:55:57;4.20;;;1.10;;
38865;SDS011;62686;48.984;8.394;2023-03-31T13:01:18;1.70;;;0.80;;
38865;SDS011;62686;48.984;8.394;2023-03-31T13:03:52;1.45;;;0.88;;
38865;SDS011;62686;48.984;8.394;2023-03-31T13:06:50;3.30;;;1.23;;
38865;SDS011;62686;48.984;8.394;2023-03-31T13:12:11;3.53;;;1.20;;
38865;SDS011;62686;48.984;8.394;2023-03-31T13:14:42;2.47;;;1.20;;
38865;SDS011;62686;48.984;8.394;2023-03-31T13:22:58;3.75;;;1.45;;
38865;SDS011;62686;48.984;8.394;2023-03-31T13:28:17;1.80;;;0.90;;
38865;SDS011;62686;48.984;8.394;2023-03-31T13:30:53;3.40;;;1.17;;
38865;SDS011;62686;48.984;8.394;2023-03-31T13:33:25;2.10;;;1.10;;
38865;SDS011;62686;48.984;8.394;2023-03-31T13:36:13;3.78;;;1.30;;
38865;SDS011;62686;48.984;8.394;2023-03-31T13:38:58;3.40;;;1.23;;
38865;SDS011;62686;48.984;8.394;2023-03-31T13:41:42;2.17;;;0.93;;
38865;SDS011;62686;48.984;8.394;2023-03-31T13:47:29;3.88;;;1.40;;
38865;SDS011;62686;48.984;8.394;2023-03-31T13:50:23;2.63;;;1.00;;
38865;SDS011;62686;48.984;8.394;2023-03-31T13:53:06;5.05;;;1.58;;
38865;SDS011;62686;48.984;8.394;2023-03-31T13:55:48;3.55;;;1.20;;
38865;SDS011;62686;48.984;8.394;2023-03-31T14:01:40;3.47;;;1.20;;
38865;SDS011;62686;48.984;8.394;2023-03-31T14:04:20;5.55;;;1.27;;
38865;SDS011;62686;48.984;8.394;2023-03-31T14:07:09;2.60;;;1.10;;
38865;SDS011;62686;48.984;8.394;2023-03-31T14:09:44;3.63;;;1.10;;
38865;SDS011;62686;48.984;8.394;2023-03-31T14:12:18;3.33;;;1.20;;
38865;SDS011;62686;48.984;8.394;2023-03-31T14:14:51;2.80;;;1.10;;
38865;SDS011;62686;48.984;8.394;2023-03-31T14:17:21;2.70;;;1.00;;
38865;SDS011;62686;48.984;8.394;2023-03-31T14:20:03;3.13;;;1.23;;
38865;SDS011;62686;48.984;8.394;2023-03-31T14:22:53;2.45;;;0.80;;
38865;SDS011;62686;48.984;8.394;2023-03-31T14:28:25;4.85;;;1.08;;
38865;SDS011;62686;48.984;8.394;2023-03-31T14:31:06;3.25;;;1.30;;
38865;SDS011;62686;48.984;8.394;2023-03-31T14:33:47;8.05;;;1.58;;
38865;SDS011;62686;48.984;8.394;2023-03-31T14:36:29;3.35;;;0.90;;
38865;SDS011;62686;48.984;8.394;2023-03-31T14:39:04;2.42;;;1.00;;
38865;SDS011;62686;48.984;8.394;2023-03-31T14:41:37;3.97;;;1.38;;
38865;SDS011;62686;48.984;8.394;2023-03-31T14:44:10;2.65;;;1.10;;
38865;SDS011;62686;48.984;8.394;2023-03-31T14:46:41;1.77;;;0.90;;
38865;SDS011;62686;48.984;8.394;2023-03-31T14:49:17;2.10;;;0.90;;
38865;SDS011;62686;48.984;8.394;2023-03-31T14:51:48;2.97;;;1.10;;
38865;SDS011;62686;48.984;8.394;2023-03-31T14:54:20;2.13;;;1.00;;
38865;SDS011;62686;48.984;8.394;2023-03-31T14:56:50;3.97;;;1.20;;
38865;SDS011;62686;48.984;8.394;2023-03-31T14:59:23;4.05;;;1.40;;
38865;SDS011;62686;48.984;8.394;2023-03-31T15:01:55;4.80;;;1.30;;
38865;SDS011;62686;48.984;8.394;2023-03-31T15:04:27;4.03;;;1.23;;
38865;SDS011;62686;48.984;8.394;2023-03-31T15:07:04;2.97;;;1.23;;
38865;SDS011;62686;48.984;8.394;2023-03-31T15:09:33;5.85;;;1.42;;
38865;SDS011;62686;48.984;8.394;2023-03-31T15:12:03;5.07;;;1.60;;
38865;SDS011;62686;48.984;8.394;2023-03-31T15:14:35;3.20;;;1.20;;
38865;SDS011;62686;48.984;8.394;2023-03-31T15:17:14;4.80;;;1.25;;
38865;SDS011;62686;48.984;8.394;2023-03-31T15:19:45;3.75;;;1.75;;
38865;SDS011;62686;48.984;8.394;2023-03-31T15:22:19;5.28;;;1.33;;
38865;SDS011;62686;48.984;8.394;2023-03-31T15:24:49;3.00;;;1.17;;
38865;SDS011;62686;48.984;8.394;2023-03-31T15:27:21;4.40;;;1.50;;
38865;SDS011;62686;48.984;8.394;2023-03-31T15:30:01;6.38;;;1.48;;
38865;SDS011;62686;48.984;8.394;2023-03-31T15:32:33;4.93;;;1.40;;
38865;SDS011;62686;48.984;8.394;2023-03-31T15:35:03;5.72;;;1.40;;
38865;SDS011;62686;48.984;8.394;2023-03-31T15:37:40;2.13;;;0.90;;
38865;SDS011;62686;48.984;8.394;2023-03-31T15:40:14;6.60;;;1.23;;
38865;SDS011;62686;48.984;8.394;2023-03-31T15:42:48;3.92;;;1.23;;
38865;SDS011;62686;48.984;8.394;2023-03-31T15:45:35;3.05;;;1.00;;
38865;SDS011;62686;48.984;8.394;2023-03-31T15:48:13;4.82;;;1.25;;
38865;SDS011;62686;48.984;8.394;2023-03-31T15:50:46;3.35;;;1.00;;
38865;SDS011;62686;48.984;8.394;2023-03-31T15:53:22;3.42;;;1.30;;
38865;SDS011;62686;48.984;8.394;2023-03-31T15:55:54;3.40;;;1.00;;
38865;SDS011;62686;48.984;8.394;2023-03-31T16:01:22;3.00;;;1.20;;
38865;SDS011;62686;48.984;8.394;2023-03-31T16:03:55;1.83;;;0.80;;